CheckWX is a tool to help pilots better visualize weather data.  It is not intended as a substitute for an official pre-flight weather briefing.

23:20:59 UTC

KOMA TAF
Eppley Airfield
Omaha, Nebraska, USA
KOMA 102341Z 1100/1124 18006KT P6SM BKN150 FM110700 VRB05KT P6SM VCSH BKN070 TEMPO 1108/1111 3SM TSRA OVC030CB FM111500 32010KT P6SM FEW250 FM111700 33014G24KT P6SM SKC

Jul-11@
00:00 UTC

Jul-11 @ 00:00 UTC

Jul-11@
07:00 UTC

Jul-11 @ 07:00 UTC

TAF KOMA 102341Z 1100/1124 18006KT P6SM BKN150

Expired

Wind
  • 180° at 6 KTS
Cloud Levels
  • Broken at 15,000' AGL

Jul-11@
07:00 UTC

Jul-11 @ 07:00 UTC

Jul-11@
15:00 UTC

Jul-11 @ 15:00 UTC

FM110700 VRB05KT P6SM VCSH BKN070

Expired

Wind
  • Variable at 5 KTS
Conditions
Area Showers
Cloud Levels
  • Broken at 7,000' AGL

Jul-11@
08:00 UTC

Jul-11 @ 08:00 UTC

Jul-11@
11:00 UTC

Jul-11 @ 11:00 UTC

TEMPO 1108/1111 3SM TSRA OVC030CB

Expired

Conditions
Thunderstorm, Rain
Cloud Levels
  • Overcast at 3,000' AGL

Jul-11@
15:00 UTC

Jul-11 @ 15:00 UTC

Jul-11@
17:00 UTC

Jul-11 @ 17:00 UTC

FM111500 32010KT P6SM FEW250

Expired

Wind
  • 320° at 10 KTS
Cloud Levels
  • Few at 25,000' AGL

Jul-11@
17:00 UTC

Jul-11 @ 17:00 UTC

Jul-12@
00:00 UTC

Jul-12 @ 00:00 UTC

FM111700 33014G24KT P6SM SKC

From

From Standard forecast or significant change

Wind
  • 330° at 14 KTS
  • {Gusting to 24 KTS
Cloud Levels
  • Clear skies